Time;durP1;ratioP1;P1;durP2;ratioP2;P2;SDS_P1;SDS_P2;PMS_P1;PMS_P2;Temp;Humidity;BMP_temperature;BMP_pressure;BME280_temperature;BME280_humidity;BME280_pressure;Samples;Min_cycle;Max_cycle;Signal;HPM_P1;HPM_P2
2022/08/08 00:00:10;;;;;;;4.20;2.63;;;20.40;53.50;;;;;;5064439;28;20469;-83
2022/08/08 00:02:47;;;;;;;3.40;2.70;;;20.40;53.40;;;;;;5054858;28;20449;-83
2022/08/08 00:05:21;;;;;;;6.07;2.30;;;20.30;53.60;;;;;;5062380;28;20932;-83
2022/08/08 00:07:55;;;;;;;3.37;3.07;;;20.30;53.70;;;;;;5069487;28;20436;-83
2022/08/08 00:10:25;;;;;;;3.20;2.67;;;20.20;54.00;;;;;;5060377;28;20476;-83
2022/08/08 00:13:01;;;;;;;2.50;2.20;;;20.20;54.10;;;;;;5056144;28;20502;-83
2022/08/08 00:15:35;;;;;;;2.70;2.10;;;20.20;54.30;;;;;;5054322;28;20440;-83
2022/08/08 00:18:11;;;;;;;2.57;1.80;;;20.10;54.00;;;;;;5054291;28;21009;-83
2022/08/08 00:20:42;;;;;;;2.60;2.03;;;20.10;53.30;;;;;;5069244;28;20476;-83
2022/08/08 00:23:15;;;;;;;2.37;1.80;;;20.20;53.50;;;;;;5072038;28;20444;-81
2022/08/08 00:25:47;;;;;;;3.40;2.60;;;20.20;54.50;;;;;;5062789;28;20441;-80
2022/08/08 00:28:17;;;;;;;3.40;3.03;;;20.10;55.30;;;;;;5061816;28;20520;-80
2022/08/08 00:30:50;;;;;;;4.60;2.90;;;20.00;55.00;;;;;;5062424;28;20473;-80
2022/08/08 00:33:21;;;;;;;2.57;2.30;;;19.90;55.20;;;;;;5068213;28;20445;-80
2022/08/08 00:35:53;;;;;;;4.20;3.37;;;19.90;55.40;;;;;;5072532;28;20425;-80
2022/08/08 00:38:36;;;;;;;3.63;2.23;;;19.80;55.30;;;;;;5071717;28;20425;-80
2022/08/08 00:41:41;;;;;;;2.57;2.13;;;19.80;55.20;;;;;;5061543;28;20510;-80
2022/08/08 00:44:31;;;;;;;2.37;2.17;;;19.70;55.30;;;;;;5056746;28;20452;-80
2022/08/08 00:47:28;;;;;;;2.93;2.03;;;19.60;55.50;;;;;;5056651;28;20440;-80
2022/08/08 00:50:28;;;;;;;3.80;2.20;;;19.60;55.70;;;;;;5055804;28;20503;-80
2022/08/08 00:53:07;;;;;;;2.17;1.97;;;19.50;55.60;;;;;;5012364;28;20827;-80
2022/08/08 00:56:19;;;;;;;4.57;1.83;;;19.50;55.80;;;;;;5055681;28;20503;-80
2022/08/08 00:59:24;;;;;;;3.40;2.50;;;19.40;55.80;;;;;;5057682;28;20956;-80
2022/08/08 01:02:00;;;;;;;2.10;1.70;;;19.40;56.50;;;;;;5056738;28;20452;-80
2022/08/08 01:05:01;;;;;;;2.20;2.00;;;19.30;56.70;;;;;;5066684;28;20455;-80
2022/08/08 01:08:01;;;;;;;3.53;2.20;;;19.20;57.20;;;;;;5072070;28;20444;-80
2022/08/08 01:10:55;;;;;;;3.20;2.17;;;19.10;57.70;;;;;;5028275;28;20465;-80
2022/08/08 01:14:00;;;;;;;3.93;2.30;;;19.00;57.90;;;;;;5060147;28;20802;-80
2022/08/08 01:16:58;;;;;;;2.90;2.40;;;19.00;58.30;;;;;;5059310;28;20473;-80
2022/08/08 01:20:00;;;;;;;3.17;1.87;;;18.90;58.40;;;;;;5059255;28;20469;-80
2022/08/08 01:22:55;;;;;;;2.57;2.13;;;18.90;58.40;;;;;;5059905;28;20444;-81
2022/08/08 01:26:03;;;;;;;2.17;1.90;;;18.90;58.50;;;;;;5062315;28;20459;-81
2022/08/08 01:29:07;;;;;;;2.73;2.33;;;18.90;58.80;;;;;;5067785;28;20491;-80
2022/08/08 01:32:11;;;;;;;2.53;2.00;;;18.70;59.10;;;;;;5060389;28;20865;-80
2022/08/08 01:35:12;;;;;;;2.60;2.40;;;18.70;59.30;;;;;;5061079;28;20806;-81
2022/08/08 01:38:26;;;;;;;2.27;1.80;;;18.70;59.20;;;;;;5055868;28;20476;-80
2022/08/08 01:41:02;;;;;;;3.47;1.90;;;18.70;59.00;;;;;;4977938;28;20497;-80
2022/08/08 01:43:39;;;;;;;3.40;2.30;;;18.70;59.40;;;;;;5046576;28;20957;-81
2022/08/08 01:46:27;;;;;;;2.97;2.03;;;18.70;59.40;;;;;;5061653;28;20445;-80
2022/08/08 01:49:01;;;;;;;2.30;2.10;;;18.60;59.40;;;;;;5059462;28;20491;-80
2022/08/08 01:51:57;;;;;;;2.33;2.00;;;18.60;59.60;;;;;;5061796;28;20451;-80
2022/08/08 01:54:34;;;;;;;4.10;2.57;;;18.50;59.90;;;;;;5062568;28;20830;-80
2022/08/08 01:57:13;;;;;;;3.13;2.60;;;18.40;60.20;;;;;;5060513;28;20526;-80
2022/08/08 01:59:53;;;;;;;3.50;2.67;;;18.30;60.50;;;;;;5060855;28;20464;-80
2022/08/08 02:02:35;;;;;;;2.60;2.40;;;18.30;60.50;;;;;;5059804;28;20445;-80
2022/08/08 02:05:13;;;;;;;2.33;2.13;;;18.30;59.80;;;;;;5059292;28;21018;-80
2022/08/08 02:08:01;;;;;;;2.90;2.07;;;18.20;59.40;;;;;;5059194;28;20440;-80
2022/08/08 02:10:49;;;;;;;2.10;1.90;;;18.30;59.30;;;;;;5058887;28;20521;-80
2022/08/08 02:13:22;;;;;;;3.70;2.73;;;18.30;59.50;;;;;;5058639;28;20542;-80
2022/08/08 02:15:57;;;;;;;5.30;3.63;;;18.20;59.70;;;;;;5061406;28;20491;-80
2022/08/08 02:18:32;;;;;;;7.47;3.50;;;18.10;60.20;;;;;;5061691;28;20472;-80
2022/08/08 02:24:14;;;;;;;7.23;3.63;;;17.90;61.20;;;;;;4980603;28;20433;-80
2022/08/08 02:26:48;;;;;;;6.87;4.70;;;17.90;62.30;;;;;;4991675;28;20443;-80
2022/08/08 02:29:29;;;;;;;5.20;4.00;;;17.90;62.60;;;;;;5037569;28;20467;-80
2022/08/08 02:32:32;;;;;;;6.70;4.03;;;17.90;63.10;;;;;;5074652;28;20444;-80
2022/08/08 02:35:21;;;;;;;5.73;4.20;;;17.80;63.20;;;;;;5034681;28;20456;-80
2022/08/08 02:38:26;;;;;;;8.33;4.93;;;17.70;63.60;;;;;;5062514;28;20493;-80
2022/08/08 02:41:13;;;;;;;5.47;4.30;;;17.80;64.00;;;;;;5061696;28;20487;-80
2022/08/08 02:43:58;;;;;;;6.23;4.20;;;17.80;64.10;;;;;;5061681;28;20498;-80
2022/08/08 02:46:43;;;;;;;21.77;4.80;;;17.80;64.60;;;;;;5062255;28;20437;-80
2022/08/08 02:49:46;;;;;;;5.90;3.57;;;17.80;64.60;;;;;;5062475;28;20817;-80
2022/08/08 02:52:34;;;;;;;5.57;3.50;;;17.60;65.10;;;;;;5061348;28;20455;-81
2022/08/08 02:55:22;;;;;;;5.80;3.77;;;17.70;65.80;;;;;;5074611;28;20456;-80
2022/08/08 02:58:27;;;;;;;4.00;3.60;;;17.70;65.60;;;;;;5063127;28;20480;-80
2022/08/08 03:01:14;;;;;;;5.33;3.50;;;17.70;65.70;;;;;;5061484;28;20523;-80
2022/08/08 03:04:16;;;;;;;7.00;4.47;;;17.70;66.00;;;;;;5061877;28;20447;-80
2022/08/08 03:07:25;;;;;;;7.53;5.00;;;17.60;65.90;;;;;;5060948;28;20455;-80
2022/08/08 03:10:30;;;;;;;9.30;4.20;;;17.50;66.60;;;;;;5062062;28;20476;-80
2022/08/08 03:13:34;;;;;;;6.77;4.13;;;17.40;67.40;;;;;;5062189;28;20461;-80
2022/08/08 03:16:20;;;;;;;4.93;3.70;;;17.50;68.40;;;;;;5029533;28;20502;-80
2022/08/08 03:18:56;;;;;;;7.80;4.20;;;17.50;68.60;;;;;;5061963;28;20476;-80
2022/08/08 03:21:23;;;;;;;8.43;3.60;;;17.40;68.80;;;;;;5061300;28;20448;-80
2022/08/08 03:23:51;;;;;;;6.80;4.27;;;17.40;69.30;;;;;;5061193;28;20456;-80
2022/08/08 03:26:26;;;;;;;8.60;3.77;;;17.40;70.00;;;;;;5061701;28;20445;-80
2022/08/08 03:28:58;;;;;;;5.33;3.80;;;17.40;70.60;;;;;;5059674;28;20460;-80
2022/08/08 03:34:13;;;;;;;5.90;3.80;;;17.30;71.40;;;;;;5062398;28;20797;-80
2022/08/08 03:36:40;;;;;;;4.73;3.63;;;17.20;71.70;;;;;;5061311;28;20441;-80
2022/08/08 03:39:10;;;;;;;4.03;3.60;;;17.30;71.60;;;;;;5060342;28;20913;-80
2022/08/08 03:41:37;;;;;;;7.80;3.60;;;17.30;71.40;;;;;;5061101;28;20480;-80
2022/08/08 03:44:05;;;;;;;5.07;3.63;;;17.30;71.90;;;;;;5061058;28;20452;-80
2022/08/08 03:46:42;;;;;;;3.90;3.27;;;17.20;72.00;;;;;;5060979;28;20441;-80
2022/08/08 03:49:17;;;;;;;4.40;3.20;;;17.10;71.80;;;;;;5062803;28;20489;-80
2022/08/08 03:51:43;;;;;;;4.73;3.40;;;17.10;72.10;;;;;;5064077;28;20439;-80
2022/08/08 03:54:11;;;;;;;4.73;3.03;;;17.00;72.10;;;;;;5069785;28;20441;-80
2022/08/08 03:56:38;;;;;;;3.17;2.50;;;17.00;71.50;;;;;;5066997;28;20448;-80
2022/08/08 03:59:05;;;;;;;3.07;2.47;;;17.00;71.00;;;;;;5071391;28;20491;-80
2022/08/08 04:01:36;;;;;;;3.00;2.50;;;16.80;70.70;;;;;;5081038;28;20444;-80
2022/08/08 04:04:03;;;;;;;5.00;2.67;;;16.80;71.50;;;;;;5080221;28;20824;-80
2022/08/08 04:06:30;;;;;;;3.33;2.60;;;16.80;71.90;;;;;;5080507;28;20470;-80
2022/08/08 04:08:57;;;;;;;5.07;3.40;;;16.80;71.10;;;;;;5079399;28;20515;-80
2022/08/08 04:11:25;;;;;;;3.80;3.13;;;16.80;71.70;;;;;;5080763;28;20452;-80
2022/08/08 04:13:53;;;;;;;3.80;3.07;;;16.80;72.90;;;;;;5075468;28;20437;-80
2022/08/08 04:16:20;;;;;;;6.27;3.17;;;16.80;73.80;;;;;;5059987;28;20448;-80
2022/08/08 04:18:47;;;;;;;4.90;3.60;;;16.80;74.80;;;;;;5059601;28;20902;-80
2022/08/08 04:21:15;;;;;;;5.30;4.37;;;16.80;76.00;;;;;;5059957;28;20468;-80
2022/08/08 04:23:42;;;;;;;6.53;3.80;;;16.80;77.10;;;;;;5059395;28;20650;-80
2022/08/08 04:26:08;;;;;;;8.10;3.63;;;16.80;78.20;;;;;;5059518;28;20449;-80
2022/08/08 04:28:37;;;;;;;5.37;3.87;;;16.80;78.90;;;;;;5059537;28;20472;-80
2022/08/08 04:31:04;;;;;;;7.30;4.13;;;16.70;79.60;;;;;;5067367;28;20435;-80
2022/08/08 04:33:31;;;;;;;4.70;4.20;;;16.80;81.10;;;;;;5078970;28;20498;-80
2022/08/08 04:35:57;;;;;;;6.40;3.87;;;16.80;81.70;;;;;;5079070;28;20478;-80
2022/08/08 04:38:24;;;;;;;6.40;3.63;;;16.80;82.50;;;;;;5088687;28;20483;-80
2022/08/08 04:40:51;;;;;;;5.33;3.77;;;16.90;82.90;;;;;;5090629;28;20464;-80
2022/08/08 04:43:17;;;;;;;7.10;3.73;;;16.90;83.30;;;;;;5092444;28;20472;-81
2022/08/08 04:45:46;;;;;;;6.03;4.43;;;16.90;84.00;;;;;;5083312;28;20456;-81
2022/08/08 04:48:12;;;;;;;5.60;4.13;;;16.80;84.50;;;;;;5081911;28;20440;-80
2022/08/08 04:50:39;;;;;;;6.63;4.20;;;16.90;85.20;;;;;;5081398;28;20472;-81
2022/08/08 04:53:06;;;;;;;6.50;3.63;;;16.90;85.40;;;;;;5075510;28;20497;-81
2022/08/08 04:55:33;;;;;;;6.87;3.80;;;17.00;85.60;;;;;;5075679;28;20440;-81
2022/08/08 04:58:00;;;;;;;9.23;4.67;;;17.00;86.20;;;;;;5083661;28;20472;-80
2022/08/08 05:00:26;;;;;;;11.27;4.80;;;17.00;87.50;;;;;;5091406;28;20460;-80
2022/08/08 05:02:55;;;;;;;9.83;5.33;;;17.00;87.30;;;;;;5086825;28;20446;-81
2022/08/08 05:05:21;;;;;;;6.53;4.97;;;17.10;87.90;;;;;;5079504;28;20440;-81
2022/08/08 05:07:48;;;;;;;6.43;5.17;;;17.40;87.50;;;;;;5080632;28;20436;-81
2022/08/08 05:10:15;;;;;;;8.20;5.40;;;17.80;86.90;;;;;;5081042;28;20494;-81
2022/08/08 05:12:42;;;;;;;6.00;4.90;;;18.30;85.10;;;;;;5085557;28;20450;-81
2022/08/08 05:15:10;;;;;;;9.43;4.90;;;18.80;82.50;;;;;;5090880;28;20447;-81
2022/08/08 05:17:36;;;;;;;10.40;4.73;;;19.40;79.30;;;;;;5084709;28;20475;-81
2022/08/08 05:20:06;;;;;;;12.30;5.60;;;19.90;76.00;;;;;;5081658;28;20468;-81
2022/08/08 05:22:32;;;;;;;10.00;4.70;;;20.50;73.70;;;;;;5081437;28;20448;-81
2022/08/08 05:24:59;;;;;;;6.90;4.50;;;20.90;71.20;;;;;;5080235;28;20448;-81
2022/08/08 05:27:26;;;;;;;8.83;4.77;;;21.30;69.20;;;;;;5080887;28;21047;-81
2022/08/08 05:29:52;;;;;;;10.50;5.70;;;21.50;66.50;;;;;;5085073;28;20588;-81
2022/08/08 05:32:19;;;;;;;8.80;5.40;;;21.70;65.70;;;;;;5087264;28;20444;-81
2022/08/08 05:34:48;;;;;;;7.73;5.17;;;22.00;64.80;;;;;;5081803;28;20454;-81
2022/08/08 05:37:22;;;;;;;9.23;5.80;;;22.40;63.60;;;;;;5081278;28;20470;-82
2022/08/08 05:39:51;;;;;;;9.87;5.80;;;22.90;61.90;;;;;;5081208;28;20459;-81
2022/08/08 05:42:18;;;;;;;8.13;5.00;;;23.30;59.90;;;;;;5084880;28;20435;-82
2022/08/08 05:44:47;;;;;;;9.70;5.63;;;23.70;59.00;;;;;;5088155;28;20444;-81
2022/08/08 05:47:14;;;;;;;9.80;5.87;;;24.10;58.20;;;;;;5079857;28;20451;-81
2022/08/08 05:49:42;;;;;;;6.83;5.13;;;24.30;57.30;;;;;;5082356;28;20466;-79
2022/08/08 05:52:09;;;;;;;8.40;4.77;;;24.40;57.10;;;;;;5083838;28;20459;-80
2022/08/08 05:54:38;;;;;;;7.07;3.70;;;24.50;56.50;;;;;;5083874;28;20459;-81
2022/08/08 05:57:09;;;;;;;4.33;3.80;;;24.50;56.10;;;;;;5083830;28;20477;-81
2022/08/08 05:59:38;;;;;;;7.20;5.43;;;24.30;56.70;;;;;;5083141;28;20518;-82
2022/08/08 06:03:09;;;;;;;4.97;4.40;;;24.50;56.30;;;;;;5083536;28;20447;-81
2022/08/08 06:05:09;;;;;;;5.73;4.50;;;24.30;56.00;;;;;;5082929;28;20514;-81
2022/08/08 06:07:38;;;;;;;6.70;4.37;;;24.70;55.90;;;;;;5081971;28;20976;-81
2022/08/08 06:10:09;;;;;;;8.03;5.90;;;24.90;55.10;;;;;;5082639;28;20472;-81
2022/08/08 06:12:36;;;;;;;6.47;5.87;;;24.90;55.40;;;;;;5083359;28;20452;-81
2022/08/08 06:15:05;;;;;;;9.57;6.17;;;25.30;54.60;;;;;;5082668;28;20451;-82
2022/08/08 06:17:33;;;;;;;7.97;5.90;;;25.80;54.40;;;;;;5081820;28;20449;-82
2022/08/08 06:20:02;;;;;;;7.63;5.37;;;26.00;53.60;;;;;;5080671;28;20469;-82
2022/08/08 06:22:29;;;;;;;5.47;4.97;;;26.30;52.50;;;;;;5081555;28;20453;-82
2022/08/08 06:24:56;;;;;;;6.57;4.77;;;26.40;51.80;;;;;;5082153;28;20447;-79
2022/08/08 06:27:30;;;;;;;5.27;4.67;;;26.40;51.70;;;;;;5066740;28;20444;-80
2022/08/08 06:30:03;;;;;;;5.40;4.27;;;27.00;51.70;;;;;;5066876;28;20463;-80
2022/08/08 06:32:31;;;;;;;4.83;4.20;;;27.10;50.30;;;;;;5073248;28;20442;-80
2022/08/08 06:35:00;;;;;;;5.77;4.93;;;27.00;50.80;;;;;;5065343;28;20450;-80
2022/08/08 06:37:31;;;;;;;3.93;3.40;;;27.00;51.00;;;;;;5063411;28;20439;-80
2022/08/08 06:40:04;;;;;;;5.57;3.73;;;26.90;50.70;;;;;;5070783;28;20488;-80
2022/08/08 06:42:35;;;;;;;4.13;3.40;;;26.70;51.30;;;;;;5062640;28;20441;-80
2022/08/08 06:45:03;;;;;;;4.10;3.70;;;26.80;51.50;;;;;;5061943;28;20477;-81
2022/08/08 06:47:30;;;;;;;4.47;4.07;;;27.00;51.30;;;;;;5066404;28;20455;-81
2022/08/08 06:49:58;;;;;;;5.40;3.40;;;27.80;50.60;;;;;;5061045;28;20903;-80
2022/08/08 06:52:24;;;;;;;6.17;3.87;;;28.20;49.20;;;;;;5060305;28;20934;-81
2022/08/08 06:54:54;;;;;;;4.40;3.30;;;28.10;49.30;;;;;;5060288;28;20555;-81
2022/08/08 06:57:20;;;;;;;5.37;3.63;;;28.40;49.00;;;;;;5060878;28;20839;-81
2022/08/08 06:59:48;;;;;;;4.73;3.63;;;28.70;48.10;;;;;;5079342;28;20492;-81
2022/08/08 07:02:23;;;;;;;3.90;3.23;;;29.30;47.20;;;;;;5079094;28;20967;-81
2022/08/08 07:04:55;;;;;;;4.73;3.60;;;29.60;46.70;;;;;;5059569;28;20520;-82
2022/08/08 07:07:27;;;;;;;6.53;2.80;;;30.40;45.50;;;;;;5057611;28;20444;-81
2022/08/08 07:10:03;;;;;;;2.90;2.63;;;31.40;44.50;;;;;;5057404;28;20496;-82
2022/08/08 07:12:38;;;;;;;5.67;3.60;;;31.20;43.40;;;;;;5056565;28;20450;-82
2022/08/08 07:15:09;;;;;;;4.80;3.17;;;31.30;43.20;;;;;;5058986;28;20476;-82
2022/08/08 07:17:41;;;;;;;3.63;3.00;;;31.50;43.20;;;;;;5058510;28;20853;-82
2022/08/08 07:20:08;;;;;;;7.00;4.00;;;31.80;42.90;;;;;;5072780;28;20488;-82
2022/08/08 07:22:42;;;;;;;6.20;3.50;;;31.90;42.20;;;;;;5074377;28;20445;-82
2022/08/08 07:25:10;;;;;;;3.93;3.10;;;32.40;42.00;;;;;;5057851;28;20849;-82
2022/08/08 07:27:42;;;;;;;4.53;3.10;;;32.70;41.50;;;;;;5071519;28;20461;-87
2022/08/08 07:30:11;;;;;;;5.90;3.27;;;33.50;40.30;;;;;;5069619;28;20465;-87
2022/08/08 07:32:38;;;;;;;4.43;2.90;;;33.60;39.70;;;;;;5058185;28;20457;-87
2022/08/08 07:35:06;;;;;;;3.90;3.50;;;33.60;39.50;;;;;;5064614;28;20459;-87
2022/08/08 07:37:36;;;;;;;4.03;3.63;;;33.70;39.20;;;;;;5077365;28;20444;-87
2022/08/08 07:40:03;;;;;;;5.50;3.67;;;32.70;40.30;;;;;;5056421;28;20499;-87
2022/08/08 07:42:30;;;;;;;5.83;3.77;;;33.40;40.00;;;;;;5065230;28;20432;-87
2022/08/08 07:44:57;;;;;;;6.40;3.30;;;34.20;38.80;;;;;;5078258;28;20446;-87
2022/08/08 07:47:26;;;;;;;3.40;2.83;;;34.80;38.20;;;;;;5065903;28;20549;-87
2022/08/08 07:49:53;;;;;;;7.00;3.53;;;35.10;37.30;;;;;;5057750;28;20518;-87
2022/08/08 07:52:20;;;;;;;3.30;3.00;;;35.90;36.60;;;;;;5058068;28;20857;-87
2022/08/08 07:54:55;;;;;;;6.73;3.20;;;36.30;35.50;;;;;;5053869;28;20451;-87
2022/08/08 07:57:29;;;;;;;3.43;2.87;;;36.00;35.80;;;;;;5054251;28;20447;-87
2022/08/08 08:00:03;;;;;;;3.33;3.00;;;36.20;35.00;;;;;;5053792;28;20533;-87
2022/08/08 08:02:38;;;;;;;3.40;3.10;;;36.00;35.80;;;;;;5053803;28;20520;-87
2022/08/08 08:05:11;;;;;;;3.20;2.87;;;36.80;34.70;;;;;;5053701;28;20549;-86
2022/08/08 08:07:41;;;;;;;5.47;2.90;;;37.10;34.00;;;;;;5053624;28;20489;-87
2022/08/08 08:10:11;;;;;;;2.80;2.43;;;37.20;34.40;;;;;;5057707;28;20471;-86
2022/08/08 08:12:41;;;;;;;4.07;3.10;;;37.20;33.20;;;;;;5074516;28;20456;-87
2022/08/08 08:15:11;;;;;;;3.23;2.73;;;37.50;32.40;;;;;;5055440;28;20454;-88
2022/08/08 08:17:44;;;;;;;3.10;2.73;;;37.70;32.30;;;;;;5053099;28;20452;-87
2022/08/08 08:20:13;;;;;;;3.03;2.80;;;38.40;31.80;;;;;;5056307;28;20859;-87
2022/08/08 08:22:40;;;;;;;3.03;2.80;;;38.70;31.20;;;;;;5054708;28;20445;-87
2022/08/08 08:25:07;;;;;;;3.37;2.73;;;39.20;31.00;;;;;;5078809;28;20445;-87
2022/08/08 08:27:35;;;;;;;3.67;3.33;;;39.70;30.10;;;;;;5075308;28;20444;-87
2022/08/08 08:30:02;;;;;;;3.77;3.40;;;39.60;30.00;;;;;;5066502;28;20496;-87
2022/08/08 08:32:30;;;;;;;3.43;2.63;;;40.50;29.40;;;;;;5063317;28;20436;-88
2022/08/08 08:34:58;;;;;;;3.90;2.40;;;40.70;28.90;;;;;;5060208;28;20441;-87
2022/08/08 08:37:26;;;;;;;4.20;3.00;;;40.20;29.00;;;;;;5064609;28;20809;-87
2022/08/08 08:39:52;;;;;;;3.27;2.80;;;39.90;29.10;;;;;;5063860;28;20571;-88
2022/08/08 08:42:20;;;;;;;9.60;8.63;;;39.70;29.20;;;;;;5062953;28;20929;-88
2022/08/08 08:44:47;;;;;;;5.40;4.90;;;40.10;29.10;;;;;;5074949;28;20439;-88
2022/08/08 08:47:15;;;;;;;3.13;2.93;;;40.60;28.90;;;;;;5080501;28;20428;-87
2022/08/08 08:49:42;;;;;;;4.60;2.70;;;41.20;28.60;;;;;;5086424;28;20464;-87
2022/08/08 08:52:16;;;;;;;2.30;2.10;;;41.10;28.40;;;;;;5091561;28;20437;-86
2022/08/08 08:54:45;;;;;;;3.03;2.73;;;41.00;28.40;;;;;;5071236;28;20453;-87
2022/08/08 08:57:13;;;;;;;2.53;2.33;;;41.10;28.30;;;;;;5069218;28;20835;-87
2022/08/08 08:59:44;;;;;;;2.77;2.57;;;41.30;28.30;;;;;;5061170;28;20584;-86
2022/08/08 09:02:18;;;;;;;3.03;2.73;;;41.80;28.00;;;;;;5064658;28;20480;-86
2022/08/08 09:04:48;;;;;;;2.90;2.67;;;41.80;27.40;;;;;;5080766;28;20438;-86
2022/08/08 09:07:22;;;;;;;2.97;2.77;;;42.20;27.30;;;;;;5087692;28;20445;-86
2022/08/08 09:09:52;;;;;;;2.60;2.40;;;42.90;26.80;;;;;;5080010;28;20460;-87
2022/08/08 09:12:22;;;;;;;2.10;1.97;;;43.20;26.40;;;;;;5073147;28;20432;-87
2022/08/08 09:14:51;;;;;;;2.50;2.30;;;42.60;26.30;;;;;;5075055;28;20421;-86
2022/08/08 09:17:19;;;;;;;3.10;2.77;;;41.80;26.70;;;;;;5082766;28;20414;-86
2022/08/08 09:19:46;;;;;;;3.53;2.33;;;42.20;26.70;;;;;;5073184;28;20483;-88
2022/08/08 09:22:14;;;;;;;2.50;2.30;;;43.00;26.20;;;;;;5069271;28;20806;-88
2022/08/08 09:24:43;;;;;;;2.70;2.50;;;42.50;25.60;;;;;;5058552;28;20803;-87
2022/08/08 09:27:11;;;;;;;5.07;2.63;;;41.90;26.00;;;;;;5062769;28;20438;-87
2022/08/08 09:29:50;;;;;;;2.70;2.50;;;42.10;25.80;;;;;;5061590;28;20559;-87
2022/08/08 09:32:22;;;;;;;2.73;2.17;;;42.20;25.70;;;;;;5071127;28;20436;-88
2022/08/08 09:34:51;;;;;;;2.43;2.23;;;42.80;25.60;;;;;;5087261;28;20449;-88
2022/08/08 09:37:20;;;;;;;2.23;2.10;;;42.10;25.50;;;;;;5076201;28;20805;-88
2022/08/08 09:39:59;;;;;;;3.50;2.00;;;41.40;25.80;;;;;;5067374;28;20476;-87
2022/08/08 09:42:35;;;;;;;3.30;2.23;;;41.00;26.10;;;;;;5074122;28;20445;-89
2022/08/08 09:45:11;;;;;;;3.00;2.33;;;41.20;25.90;;;;;;5071928;28;20436;-89
2022/08/08 09:47:39;;;;;;;3.00;1.83;;;41.10;26.00;;;;;;5064703;28;20456;-88
2022/08/08 09:50:10;;;;;;;2.33;2.13;;;42.10;25.30;;;;;;5055441;28;20827;-88
2022/08/08 09:52:40;;;;;;;2.20;1.97;;;43.10;24.70;;;;;;5067103;28;20438;-87
2022/08/08 09:55:09;;;;;;;2.47;2.27;;;44.40;24.40;;;;;;5057931;28;20782;-88
2022/08/08 09:57:37;;;;;;;4.93;2.40;;;45.40;23.30;;;;;;5069056;28;20455;-88
2022/08/08 10:00:08;;;;;;;2.87;2.67;;;45.40;23.50;;;;;;5070345;28;21050;-87
2022/08/08 10:02:36;;;;;;;2.40;2.20;;;44.60;23.60;;;;;;5080999;28;20467;-86
2022/08/08 10:05:06;;;;;;;2.37;2.17;;;44.70;23.80;;;;;;5079656;28;20445;-87
2022/08/08 10:07:33;;;;;;;2.20;2.00;;;45.30;23.40;;;;;;5055463;28;20449;-88
2022/08/08 10:10:00;;;;;;;3.10;2.27;;;45.50;23.10;;;;;;5054004;28;21015;-88
2022/08/08 10:12:33;;;;;;;2.97;2.67;;;44.50;23.70;;;;;;5053333;28;20448;-88
2022/08/08 10:15:01;;;;;;;3.53;2.43;;;44.30;23.80;;;;;;5054667;28;20535;-87
2022/08/08 10:17:30;;;;;;;2.70;2.47;;;43.40;24.20;;;;;;5054251;28;20540;-87
2022/08/08 10:19:59;;;;;;;2.70;2.50;;;43.70;24.50;;;;;;5052075;28;20489;-88
2022/08/08 10:22:27;;;;;;;2.90;2.70;;;43.00;24.60;;;;;;5052377;28;20518;-87
2022/08/08 10:24:59;;;;;;;3.00;2.37;;;41.90;25.20;;;;;;5053561;28;20444;-87
2022/08/08 10:27:28;;;;;;;2.77;2.43;;;41.80;25.60;;;;;;5054267;28;20468;-88
2022/08/08 10:30:00;;;;;;;2.97;2.77;;;42.70;25.30;;;;;;5055519;28;20492;-88
2022/08/08 10:32:36;;;;;;;2.90;2.60;;;41.00;25.90;;;;;;5054786;28;20933;-87
2022/08/08 10:35:06;;;;;;;2.37;2.17;;;38.80;27.50;;;;;;5053183;28;20848;-87
2022/08/08 10:37:35;;;;;;;2.73;2.53;;;37.30;28.80;;;;;;5056171;28;20451;-87
2022/08/08 10:40:12;;;;;;;2.80;2.60;;;37.10;29.50;;;;;;5056200;28;21010;-87
2022/08/08 10:42:41;;;;;;;2.50;2.30;;;38.80;28.60;;;;;;5056040;28;20447;-87
2022/08/08 10:45:11;;;;;;;2.33;2.07;;;40.70;27.10;;;;;;5055268;28;20452;-86
2022/08/08 10:47:38;;;;;;;2.13;1.93;;;42.20;25.40;;;;;;5055957;28;20444;-87
2022/08/08 10:50:07;;;;;;;2.50;2.23;;;43.10;24.50;;;;;;5055686;28;20527;-87
2022/08/08 10:52:35;;;;;;;2.07;1.87;;;43.40;23.70;;;;;;5055575;28;20927;-87
2022/08/08 10:55:05;;;;;;;2.90;2.10;;;43.50;23.50;;;;;;5054708;28;20824;-87
2022/08/08 10:57:36;;;;;;;2.20;2.00;;;43.90;23.10;;;;;;5058048;28;20452;-87
2022/08/08 11:00:05;;;;;;;3.27;2.93;;;44.60;22.50;;;;;;5064904;28;20492;-87
2022/08/08 11:02:34;;;;;;;2.43;2.00;;;43.90;22.60;;;;;;5069622;28;20453;-87
2022/08/08 11:05:02;;;;;;;5.47;2.33;;;43.90;23.10;;;;;;5070988;28;20449;-87
2022/08/08 11:07:31;;;;;;;1.87;1.73;;;41.80;23.40;;;;;;5057598;28;20453;-88
2022/08/08 11:10:00;;;;;;;3.67;2.10;;;39.90;24.70;;;;;;5056241;28;20483;-87
2022/08/08 11:12:27;;;;;;;2.37;1.70;;;38.20;26.00;;;;;;5055683;28;20455;-86
2022/08/08 11:14:56;;;;;;;1.93;1.73;;;36.90;27.20;;;;;;5058839;28;20455;-86
2022/08/08 11:17:25;;;;;;;2.20;2.00;;;37.60;26.70;;;;;;5074923;28;20486;-87
2022/08/08 11:19:54;;;;;;;1.97;1.77;;;38.90;25.20;;;;;;5075508;28;20493;-86
2022/08/08 11:22:26;;;;;;;2.60;1.50;;;38.80;24.70;;;;;;5075723;28;20454;-87
2022/08/08 11:24:57;;;;;;;2.07;1.67;;;39.90;24.30;;;;;;5074240;28;20454;-88
2022/08/08 11:27:27;;;;;;;5.80;1.73;;;40.50;23.60;;;;;;5075520;28;20447;-87
2022/08/08 11:29:57;;;;;;;3.93;1.40;;;39.30;23.80;;;;;;5075496;28;20979;-86
2022/08/08 11:32:26;;;;;;;2.83;1.77;;;40.30;23.90;;;;;;5080859;28;20484;-87
2022/08/08 11:35:02;;;;;;;2.20;1.73;;;40.60;23.60;;;;;;5078220;28;20870;-87
2022/08/08 11:37:30;;;;;;;3.30;1.97;;;40.10;23.80;;;;;;5087984;28;20447;-86
2022/08/08 11:39:59;;;;;;;2.33;1.83;;;41.50;23.30;;;;;;5096424;28;20886;-85
2022/08/08 11:42:26;;;;;;;1.97;1.67;;;40.80;23.00;;;;;;5099031;28;20428;-86
2022/08/08 11:44:54;;;;;;;1.90;1.60;;;40.30;23.50;;;;;;5086386;28;20443;-86
2022/08/08 11:47:23;;;;;;;2.23;1.90;;;39.40;24.50;;;;;;5075514;28;20508;-87
2022/08/08 11:49:52;;;;;;;1.77;1.67;;;39.60;24.10;;;;;;5083650;28;20471;-86
2022/08/08 11:52:20;;;;;;;2.10;1.77;;;40.50;23.70;;;;;;5075818;28;20474;-86
2022/08/08 11:54:48;;;;;;;2.33;1.87;;;41.20;23.60;;;;;;5076192;28;20440;-86
2022/08/08 11:57:19;;;;;;;2.10;1.90;;;41.60;23.00;;;;;;5075009;28;20452;-87
2022/08/08 11:59:52;;;;;;;2.43;2.20;;;41.90;22.60;;;;;;5073443;28;21048;-87
2022/08/08 12:02:19;;;;;;;2.23;1.60;;;41.90;22.70;;;;;;5073233;28;20471;-87
2022/08/08 12:04:46;;;;;;;2.37;1.67;;;43.50;21.80;;;;;;5073774;28;20456;-86
2022/08/08 12:07:13;;;;;;;1.77;1.60;;;43.80;21.50;;;;;;5073567;28;20543;-90
2022/08/08 12:09:41;;;;;;;2.10;1.53;;;44.90;21.00;;;;;;5073412;28;20480;-86
2022/08/08 12:12:08;;;;;;;2.63;1.60;;;44.50;20.90;;;;;;5073032;28;20455;-86
2022/08/08 12:14:35;;;;;;;2.03;1.80;;;42.90;21.00;;;;;;5073516;28;20451;-87
2022/08/08 12:17:01;;;;;;;3.33;1.93;;;43.30;21.70;;;;;;5082544;28;20527;-84
2022/08/08 12:19:28;;;;;;;2.70;1.90;;;42.40;21.80;;;;;;5082153;28;21008;-86
2022/08/08 12:22:07;;;;;;;3.27;2.80;;;42.50;22.10;;;;;;5089281;28;20459;-86
2022/08/08 12:24:48;;;;;;;4.23;2.17;;;40.70;22.60;;;;;;5082581;28;20793;-86
2022/08/08 12:27:18;;;;;;;1.90;1.80;;;41.10;23.20;;;;;;5075423;28;20970;-86
2022/08/08 12:29:56;;;;;;;1.53;1.40;;;42.00;22.40;;;;;;5073576;28;20499;-86
2022/08/08 12:32:22;;;;;;;2.33;1.73;;;42.70;22.20;;;;;;5072126;28;20486;-85
2022/08/08 12:35:01;;;;;;;3.17;1.90;;;43.20;21.90;;;;;;5072142;28;20993;-86
2022/08/08 12:37:29;;;;;;;1.93;1.73;;;43.70;21.30;;;;;;5079798;28;20466;-87
2022/08/08 12:40:00;;;;;;;3.23;2.10;;;42.80;21.50;;;;;;5085914;28;20482;-88
2022/08/08 12:42:29;;;;;;;2.23;1.83;;;41.30;23.20;;;;;;5081837;28;20485;-86
2022/08/08 12:45:03;;;;;;;2.10;1.53;;;41.20;22.80;;;;;;5072796;28;20482;-85
2022/08/08 12:47:30;;;;;;;2.50;2.03;;;42.40;21.90;;;;;;5072296;28;20479;-86
2022/08/08 12:49:57;;;;;;;1.97;1.67;;;43.60;21.50;;;;;;5073240;28;20461;-85
2022/08/08 12:52:24;;;;;;;1.50;1.40;;;44.80;20.60;;;;;;5074206;28;20471;-89
2022/08/08 12:55:04;;;;;;;2.53;1.80;;;45.70;20.30;;;;;;5082463;28;20440;-85
2022/08/08 12:57:31;;;;;;;2.93;2.00;;;46.90;19.20;;;;;;5073176;28;20452;-87
2022/08/08 12:59:58;;;;;;;1.70;1.60;;;47.10;18.60;;;;;;5061094;28;20477;-87
2022/08/08 13:02:26;;;;;;;1.90;1.67;;;46.00;19.30;;;;;;5068961;28;20523;-86
2022/08/08 13:04:55;;;;;;;1.97;1.50;;;43.60;20.60;;;;;;5061917;28;20868;-87
2022/08/08 13:07:34;;;;;;;3.53;2.33;;;42.00;21.40;;;;;;5065457;28;20443;-87
2022/08/08 13:10:03;;;;;;;2.17;1.97;;;42.20;21.50;;;;;;5061220;28;20503;-87
2022/08/08 13:12:36;;;;;;;2.10;1.80;;;43.20;20.90;;;;;;5062295;28;20502;-86
2022/08/08 13:15:05;;;;;;;4.07;1.87;;;43.20;20.70;;;;;;5062029;28;20436;-86
2022/08/08 13:17:33;;;;;;;2.00;1.60;;;43.60;20.70;;;;;;5064514;28;20445;-86
2022/08/08 13:20:00;;;;;;;1.93;1.60;;;43.90;20.20;;;;;;5078689;28;20471;-87
2022/08/08 13:22:27;;;;;;;2.57;1.90;;;44.60;19.90;;;;;;5096670;28;20432;-86